sensor_id;sensor_type;location;lat;lon;timestamp;P1;durP1;ratioP1;P2;durP2;ratioP2
19589;SDS011;12231;42.782;23.388;2022-12-18T00:00:57;11.43;;;7.03;;
19589;SDS011;12231;42.782;23.388;2022-12-18T00:03:22;13.23;;;8.50;;
19589;SDS011;12231;42.782;23.388;2022-12-18T00:05:48;14.53;;;7.70;;
19589;SDS011;12231;42.782;23.388;2022-12-18T00:08:17;12.10;;;7.97;;
19589;SDS011;12231;42.782;23.388;2022-12-18T00:10:43;12.87;;;7.63;;
19589;SDS011;12231;42.782;23.388;2022-12-18T00:13:09;13.37;;;7.57;;
19589;SDS011;12231;42.782;23.388;2022-12-18T00:15:35;12.70;;;7.73;;
19589;SDS011;12231;42.782;23.388;2022-12-18T00:18:01;12.27;;;6.80;;
19589;SDS011;12231;42.782;23.388;2022-12-18T00:20:27;11.80;;;7.40;;
19589;SDS011;12231;42.782;23.388;2022-12-18T00:22:53;14.70;;;7.73;;
19589;SDS011;12231;42.782;23.388;2022-12-18T00:25:20;12.53;;;7.00;;
19589;SDS011;12231;42.782;23.388;2022-12-18T00:27:45;10.07;;;6.90;;
19589;SDS011;12231;42.782;23.388;2022-12-18T00:30:11;14.60;;;8.17;;
19589;SDS011;12231;42.782;23.388;2022-12-18T00:32:37;11.37;;;6.47;;
19589;SDS011;12231;42.782;23.388;2022-12-18T00:35:03;14.53;;;7.90;;
19589;SDS011;12231;42.782;23.388;2022-12-18T00:37:29;14.77;;;8.27;;
19589;SDS011;12231;42.782;23.388;2022-12-18T00:39:54;15.77;;;8.10;;
19589;SDS011;12231;42.782;23.388;2022-12-18T00:42:20;14.17;;;7.77;;
19589;SDS011;12231;42.782;23.388;2022-12-18T00:45:04;12.47;;;7.23;;
19589;SDS011;12231;42.782;23.388;2022-12-18T00:47:30;14.03;;;7.53;;
19589;SDS011;12231;42.782;23.388;2022-12-18T00:49:56;9.70;;;6.47;;
19589;SDS011;12231;42.782;23.388;2022-12-18T00:52:21;12.60;;;7.47;;
19589;SDS011;12231;42.782;23.388;2022-12-18T00:54:46;13.27;;;7.97;;
19589;SDS011;12231;42.782;23.388;2022-12-18T00:57:12;11.20;;;6.57;;
19589;SDS011;12231;42.782;23.388;2022-12-18T00:59:37;13.83;;;7.90;;
19589;SDS011;12231;42.782;23.388;2022-12-18T01:02:03;14.47;;;8.00;;
19589;SDS011;12231;42.782;23.388;2022-12-18T01:04:30;13.03;;;7.27;;
19589;SDS011;12231;42.782;23.388;2022-12-18T01:06:57;12.80;;;7.67;;
19589;SDS011;12231;42.782;23.388;2022-12-18T01:09:22;11.13;;;7.07;;
19589;SDS011;12231;42.782;23.388;2022-12-18T01:11:48;13.83;;;7.50;;
19589;SDS011;12231;42.782;23.388;2022-12-18T01:14:13;12.20;;;7.23;;
19589;SDS011;12231;42.782;23.388;2022-12-18T01:16:39;10.90;;;6.53;;
19589;SDS011;12231;42.782;23.388;2022-12-18T01:19:04;12.37;;;7.37;;
19589;SDS011;12231;42.782;23.388;2022-12-18T01:21:30;11.60;;;7.00;;
19589;SDS011;12231;42.782;23.388;2022-12-18T01:23:55;10.30;;;7.13;;
19589;SDS011;12231;42.782;23.388;2022-12-18T01:26:22;14.40;;;8.13;;
19589;SDS011;12231;42.782;23.388;2022-12-18T01:28:49;10.60;;;7.23;;
19589;SDS011;12231;42.782;23.388;2022-12-18T01:33:51;14.17;;;7.53;;
19589;SDS011;12231;42.782;23.388;2022-12-18T01:36:19;13.03;;;7.97;;
19589;SDS011;12231;42.782;23.388;2022-12-18T01:38:46;13.80;;;8.23;;
19589;SDS011;12231;42.782;23.388;2022-12-18T01:41:13;13.20;;;8.67;;
19589;SDS011;12231;42.782;23.388;2022-12-18T01:43:50;16.93;;;8.63;;
19589;SDS011;12231;42.782;23.388;2022-12-18T01:46:23;15.67;;;8.93;;
19589;SDS011;12231;42.782;23.388;2022-12-18T01:48:59;11.47;;;7.13;;
19589;SDS011;12231;42.782;23.388;2022-12-18T01:51:29;11.20;;;6.87;;
19589;SDS011;12231;42.782;23.388;2022-12-18T01:53:55;13.10;;;7.80;;
19589;SDS011;12231;42.782;23.388;2022-12-18T01:56:22;11.43;;;6.90;;
19589;SDS011;12231;42.782;23.388;2022-12-18T01:58:55;17.40;;;8.50;;
19589;SDS011;12231;42.782;23.388;2022-12-18T02:01:30;13.90;;;7.57;;
19589;SDS011;12231;42.782;23.388;2022-12-18T02:04:13;11.90;;;7.50;;
19589;SDS011;12231;42.782;23.388;2022-12-18T02:06:50;12.67;;;7.40;;
19589;SDS011;12231;42.782;23.388;2022-12-18T02:09:26;10.80;;;7.27;;
19589;SDS011;12231;42.782;23.388;2022-12-18T02:11:59;13.93;;;8.50;;
19589;SDS011;12231;42.782;23.388;2022-12-18T02:15:27;68.20;;;27.70;;
19589;SDS011;12231;42.782;23.388;2022-12-18T02:17:37;17.50;;;9.33;;
19589;SDS011;12231;42.782;23.388;2022-12-18T02:20:40;10.07;;;7.00;;
19589;SDS011;12231;42.782;23.388;2022-12-18T02:26:15;10.90;;;6.80;;
19589;SDS011;12231;42.782;23.388;2022-12-18T02:28:52;12.57;;;7.27;;
19589;SDS011;12231;42.782;23.388;2022-12-18T02:31:24;12.63;;;6.87;;
19589;SDS011;12231;42.782;23.388;2022-12-18T02:33:53;9.93;;;6.37;;
19589;SDS011;12231;42.782;23.388;2022-12-18T02:36:21;11.20;;;6.77;;
19589;SDS011;12231;42.782;23.388;2022-12-18T02:38:49;13.17;;;7.43;;
19589;SDS011;12231;42.782;23.388;2022-12-18T02:41:16;10.10;;;6.67;;
19589;SDS011;12231;42.782;23.388;2022-12-18T02:43:50;10.40;;;6.70;;
19589;SDS011;12231;42.782;23.388;2022-12-18T02:46:23;12.77;;;6.93;;
19589;SDS011;12231;42.782;23.388;2022-12-18T02:48:50;12.23;;;7.40;;
19589;SDS011;12231;42.782;23.388;2022-12-18T02:51:29;10.87;;;6.93;;
19589;SDS011;12231;42.782;23.388;2022-12-18T02:54:45;10.80;;;6.80;;
19589;SDS011;12231;42.782;23.388;2022-12-18T02:57:01;14.37;;;7.37;;
19589;SDS011;12231;42.782;23.388;2022-12-18T02:59:40;12.43;;;7.57;;
19589;SDS011;12231;42.782;23.388;2022-12-18T03:02:21;13.37;;;8.17;;
19589;SDS011;12231;42.782;23.388;2022-12-18T03:07:58;11.50;;;7.03;;
19589;SDS011;12231;42.782;23.388;2022-12-18T03:10:29;16.70;;;7.53;;
19589;SDS011;12231;42.782;23.388;2022-12-18T03:13:04;13.90;;;7.60;;
19589;SDS011;12231;42.782;23.388;2022-12-18T03:15:44;13.40;;;8.63;;
19589;SDS011;12231;42.782;23.388;2022-12-18T03:18:14;11.57;;;7.77;;
19589;SDS011;12231;42.782;23.388;2022-12-18T03:20:44;13.70;;;8.37;;
19589;SDS011;12231;42.782;23.388;2022-12-18T03:23:15;11.03;;;6.53;;
19589;SDS011;12231;42.782;23.388;2022-12-18T03:25:44;11.87;;;7.23;;
19589;SDS011;12231;42.782;23.388;2022-12-18T03:28:13;11.20;;;7.33;;
19589;SDS011;12231;42.782;23.388;2022-12-18T03:30:43;13.13;;;7.30;;
19589;SDS011;12231;42.782;23.388;2022-12-18T03:33:21;10.00;;;6.67;;
19589;SDS011;12231;42.782;23.388;2022-12-18T03:35:52;10.50;;;7.70;;
19589;SDS011;12231;42.782;23.388;2022-12-18T03:38:18;11.67;;;7.17;;
19589;SDS011;12231;42.782;23.388;2022-12-18T03:40:46;10.20;;;6.57;;
19589;SDS011;12231;42.782;23.388;2022-12-18T03:43:28;11.67;;;6.70;;
19589;SDS011;12231;42.782;23.388;2022-12-18T03:49:02;10.93;;;6.80;;
19589;SDS011;12231;42.782;23.388;2022-12-18T03:52:20;14.37;;;7.87;;
19589;SDS011;12231;42.782;23.388;2022-12-18T03:54:29;12.87;;;7.43;;
19589;SDS011;12231;42.782;23.388;2022-12-18T03:56:58;14.97;;;7.57;;
19589;SDS011;12231;42.782;23.388;2022-12-18T03:59:28;17.83;;;8.33;;
19589;SDS011;12231;42.782;23.388;2022-12-18T04:01:55;13.77;;;8.17;;
19589;SDS011;12231;42.782;23.388;2022-12-18T04:04:23;13.70;;;7.80;;
19589;SDS011;12231;42.782;23.388;2022-12-18T04:06:51;15.07;;;9.30;;
19589;SDS011;12231;42.782;23.388;2022-12-18T04:09:18;15.03;;;9.00;;
19589;SDS011;12231;42.782;23.388;2022-12-18T04:11:45;14.53;;;8.40;;
19589;SDS011;12231;42.782;23.388;2022-12-18T04:14:12;14.33;;;8.40;;
19589;SDS011;12231;42.782;23.388;2022-12-18T04:16:37;14.37;;;8.73;;
19589;SDS011;12231;42.782;23.388;2022-12-18T04:19:03;13.23;;;8.33;;
19589;SDS011;12231;42.782;23.388;2022-12-18T04:21:29;16.83;;;9.50;;
19589;SDS011;12231;42.782;23.388;2022-12-18T04:23:55;15.23;;;9.23;;
19589;SDS011;12231;42.782;23.388;2022-12-18T04:26:20;17.67;;;9.97;;
19589;SDS011;12231;42.782;23.388;2022-12-18T04:28:45;16.03;;;9.80;;
19589;SDS011;12231;42.782;23.388;2022-12-18T04:31:12;18.10;;;10.70;;
19589;SDS011;12231;42.782;23.388;2022-12-18T04:33:38;17.37;;;10.77;;
19589;SDS011;12231;42.782;23.388;2022-12-18T04:36:03;15.77;;;9.43;;
19589;SDS011;12231;42.782;23.388;2022-12-18T04:38:29;19.37;;;10.37;;
19589;SDS011;12231;42.782;23.388;2022-12-18T04:40:55;17.20;;;10.03;;
19589;SDS011;12231;42.782;23.388;2022-12-18T04:43:20;13.53;;;8.50;;
19589;SDS011;12231;42.782;23.388;2022-12-18T04:45:46;14.93;;;8.97;;
19589;SDS011;12231;42.782;23.388;2022-12-18T04:48:11;16.27;;;9.10;;
19589;SDS011;12231;42.782;23.388;2022-12-18T04:50:36;15.73;;;8.97;;
19589;SDS011;12231;42.782;23.388;2022-12-18T04:53:02;14.17;;;9.03;;
19589;SDS011;12231;42.782;23.388;2022-12-18T04:55:27;16.70;;;8.57;;
19589;SDS011;12231;42.782;23.388;2022-12-18T04:57:53;18.23;;;10.00;;
19589;SDS011;12231;42.782;23.388;2022-12-18T05:00:19;18.70;;;9.43;;
19589;SDS011;12231;42.782;23.388;2022-12-18T05:02:44;14.43;;;8.43;;
19589;SDS011;12231;42.782;23.388;2022-12-18T05:05:10;16.20;;;8.93;;
19589;SDS011;12231;42.782;23.388;2022-12-18T05:07:35;17.47;;;9.90;;
19589;SDS011;12231;42.782;23.388;2022-12-18T05:10:01;15.57;;;9.03;;
19589;SDS011;12231;42.782;23.388;2022-12-18T05:12:27;16.23;;;9.90;;
19589;SDS011;12231;42.782;23.388;2022-12-18T05:14:52;19.27;;;9.97;;
19589;SDS011;12231;42.782;23.388;2022-12-18T05:17:18;19.97;;;10.30;;
19589;SDS011;12231;42.782;23.388;2022-12-18T05:19:43;16.77;;;10.17;;
19589;SDS011;12231;42.782;23.388;2022-12-18T05:22:09;20.83;;;10.87;;
19589;SDS011;12231;42.782;23.388;2022-12-18T05:24:34;13.70;;;8.17;;
19589;SDS011;12231;42.782;23.388;2022-12-18T05:27:00;18.30;;;9.30;;
19589;SDS011;12231;42.782;23.388;2022-12-18T05:29:25;17.90;;;10.63;;
19589;SDS011;12231;42.782;23.388;2022-12-18T05:31:51;16.40;;;9.57;;
19589;SDS011;12231;42.782;23.388;2022-12-18T05:34:16;21.07;;;10.27;;
19589;SDS011;12231;42.782;23.388;2022-12-18T05:36:42;17.63;;;10.00;;
19589;SDS011;12231;42.782;23.388;2022-12-18T05:39:08;17.43;;;10.27;;
19589;SDS011;12231;42.782;23.388;2022-12-18T05:41:34;18.67;;;10.07;;
19589;SDS011;12231;42.782;23.388;2022-12-18T05:43:59;17.13;;;10.10;;
19589;SDS011;12231;42.782;23.388;2022-12-18T05:46:25;23.67;;;10.80;;
19589;SDS011;12231;42.782;23.388;2022-12-18T05:48:50;17.80;;;11.20;;
19589;SDS011;12231;42.782;23.388;2022-12-18T05:51:17;19.87;;;10.50;;
19589;SDS011;12231;42.782;23.388;2022-12-18T05:53:44;17.70;;;10.70;;
19589;SDS011;12231;42.782;23.388;2022-12-18T05:56:11;21.57;;;11.10;;
19589;SDS011;12231;42.782;23.388;2022-12-18T05:58:39;18.63;;;10.07;;
19589;SDS011;12231;42.782;23.388;2022-12-18T06:01:06;15.87;;;9.63;;
19589;SDS011;12231;42.782;23.388;2022-12-18T06:03:39;20.50;;;9.83;;
19589;SDS011;12231;42.782;23.388;2022-12-18T06:06:12;19.27;;;10.47;;
19589;SDS011;12231;42.782;23.388;2022-12-18T06:08:38;15.40;;;9.00;;
19589;SDS011;12231;42.782;23.388;2022-12-18T06:11:04;21.73;;;11.23;;
19589;SDS011;12231;42.782;23.388;2022-12-18T06:13:29;21.00;;;11.00;;
19589;SDS011;12231;42.782;23.388;2022-12-18T06:15:55;17.93;;;10.30;;
19589;SDS011;12231;42.782;23.388;2022-12-18T06:18:20;17.93;;;10.47;;
19589;SDS011;12231;42.782;23.388;2022-12-18T06:20:53;16.97;;;10.03;;
19589;SDS011;12231;42.782;23.388;2022-12-18T06:23:20;21.37;;;11.50;;
19589;SDS011;12231;42.782;23.388;2022-12-18T06:25:46;21.57;;;11.70;;
19589;SDS011;12231;42.782;23.388;2022-12-18T06:28:11;20.83;;;11.03;;
19589;SDS011;12231;42.782;23.388;2022-12-18T06:30:36;18.57;;;10.30;;
19589;SDS011;12231;42.782;23.388;2022-12-18T06:33:02;21.20;;;11.67;;
19589;SDS011;12231;42.782;23.388;2022-12-18T06:35:27;18.90;;;11.40;;
19589;SDS011;12231;42.782;23.388;2022-12-18T06:37:53;22.30;;;11.07;;
19589;SDS011;12231;42.782;23.388;2022-12-18T06:40:18;21.27;;;11.77;;
19589;SDS011;12231;42.782;23.388;2022-12-18T06:42:44;23.00;;;13.17;;
19589;SDS011;12231;42.782;23.388;2022-12-18T06:45:09;16.70;;;10.03;;
19589;SDS011;12231;42.782;23.388;2022-12-18T06:47:36;19.93;;;10.73;;
19589;SDS011;12231;42.782;23.388;2022-12-18T06:50:01;21.43;;;10.97;;
19589;SDS011;12231;42.782;23.388;2022-12-18T06:52:31;22.30;;;11.70;;
19589;SDS011;12231;42.782;23.388;2022-12-18T06:54:57;20.57;;;10.60;;
19589;SDS011;12231;42.782;23.388;2022-12-18T06:57:22;21.23;;;11.47;;
19589;SDS011;12231;42.782;23.388;2022-12-18T06:59:48;18.17;;;10.73;;
19589;SDS011;12231;42.782;23.388;2022-12-18T07:02:13;23.87;;;11.67;;
19589;SDS011;12231;42.782;23.388;2022-12-18T07:04:39;20.77;;;11.83;;
19589;SDS011;12231;42.782;23.388;2022-12-18T07:07:04;21.60;;;12.20;;
19589;SDS011;12231;42.782;23.388;2022-12-18T07:09:30;23.87;;;12.20;;
19589;SDS011;12231;42.782;23.388;2022-12-18T07:11:55;18.77;;;11.17;;
19589;SDS011;12231;42.782;23.388;2022-12-18T07:14:21;20.30;;;11.10;;
19589;SDS011;12231;42.782;23.388;2022-12-18T07:16:47;23.83;;;12.43;;
19589;SDS011;12231;42.782;23.388;2022-12-18T07:19:12;21.93;;;12.40;;
19589;SDS011;12231;42.782;23.388;2022-12-18T07:21:38;21.60;;;12.03;;
19589;SDS011;12231;42.782;23.388;2022-12-18T07:24:03;25.40;;;12.93;;
19589;SDS011;12231;42.782;23.388;2022-12-18T07:26:29;28.07;;;14.43;;
19589;SDS011;12231;42.782;23.388;2022-12-18T07:28:55;30.53;;;13.40;;
19589;SDS011;12231;42.782;23.388;2022-12-18T07:31:22;24.70;;;13.37;;
19589;SDS011;12231;42.782;23.388;2022-12-18T07:33:49;30.73;;;14.27;;
19589;SDS011;12231;42.782;23.388;2022-12-18T07:36:15;34.10;;;15.90;;
19589;SDS011;12231;42.782;23.388;2022-12-18T07:38:41;32.03;;;14.67;;
19589;SDS011;12231;42.782;23.388;2022-12-18T07:41:08;25.80;;;13.10;;
19589;SDS011;12231;42.782;23.388;2022-12-18T07:43:35;34.93;;;14.63;;
19589;SDS011;12231;42.782;23.388;2022-12-18T07:46:01;29.97;;;14.20;;
19589;SDS011;12231;42.782;23.388;2022-12-18T07:48:27;24.90;;;13.60;;
19589;SDS011;12231;42.782;23.388;2022-12-18T07:50:53;23.03;;;12.73;;
19589;SDS011;12231;42.782;23.388;2022-12-18T07:53:22;21.27;;;12.23;;
19589;SDS011;12231;42.782;23.388;2022-12-18T07:55:48;24.60;;;12.13;;
19589;SDS011;12231;42.782;23.388;2022-12-18T07:58:13;22.70;;;13.03;;
19589;SDS011;12231;42.782;23.388;2022-12-18T08:00:38;24.33;;;13.07;;
19589;SDS011;12231;42.782;23.388;2022-12-18T08:03:04;28.10;;;12.53;;
19589;SDS011;12231;42.782;23.388;2022-12-18T08:05:29;26.40;;;12.43;;
19589;SDS011;12231;42.782;23.388;2022-12-18T08:07:55;24.13;;;12.73;;
19589;SDS011;12231;42.782;23.388;2022-12-18T08:10:21;24.17;;;13.00;;
19589;SDS011;12231;42.782;23.388;2022-12-18T08:12:49;23.03;;;12.43;;
19589;SDS011;12231;42.782;23.388;2022-12-18T08:15:15;33.87;;;21.50;;
19589;SDS011;12231;42.782;23.388;2022-12-18T08:17:41;34.83;;;18.63;;
19589;SDS011;12231;42.782;23.388;2022-12-18T08:20:07;37.83;;;19.67;;
19589;SDS011;12231;42.782;23.388;2022-12-18T08:22:34;55.13;;;24.20;;
19589;SDS011;12231;42.782;23.388;2022-12-18T08:25:00;92.70;;;34.43;;
19589;SDS011;12231;42.782;23.388;2022-12-18T08:27:26;76.03;;;28.53;;
19589;SDS011;12231;42.782;23.388;2022-12-18T08:29:51;73.97;;;27.57;;
19589;SDS011;12231;42.782;23.388;2022-12-18T08:32:16;72.70;;;28.57;;
19589;SDS011;12231;42.782;23.388;2022-12-18T08:34:43;80.17;;;29.97;;
19589;SDS011;12231;42.782;23.388;2022-12-18T08:37:09;47.53;;;22.30;;
19589;SDS011;12231;42.782;23.388;2022-12-18T08:39:34;55.70;;;23.93;;
19589;SDS011;12231;42.782;23.388;2022-12-18T08:41:59;43.20;;;20.30;;
19589;SDS011;12231;42.782;23.388;2022-12-18T08:44:44;38.00;;;16.80;;
19589;SDS011;12231;42.782;23.388;2022-12-18T08:47:09;47.10;;;21.97;;
19589;SDS011;12231;42.782;23.388;2022-12-18T08:49:34;89.97;;;31.80;;
19589;SDS011;12231;42.782;23.388;2022-12-18T08:52:00;69.17;;;28.53;;
19589;SDS011;12231;42.782;23.388;2022-12-18T08:54:27;37.23;;;18.60;;
19589;SDS011;12231;42.782;23.388;2022-12-18T08:56:53;31.43;;;14.90;;
19589;SDS011;12231;42.782;23.388;2022-12-18T08:59:19;33.50;;;16.17;;
19589;SDS011;12231;42.782;23.388;2022-12-18T09:01:45;32.53;;;15.67;;
19589;SDS011;12231;42.782;23.388;2022-12-18T09:04:11;27.47;;;13.67;;
19589;SDS011;12231;42.782;23.388;2022-12-18T09:06:37;26.87;;;12.97;;
19589;SDS011;12231;42.782;23.388;2022-12-18T09:09:03;27.93;;;13.63;;
19589;SDS011;12231;42.782;23.388;2022-12-18T09:11:29;28.30;;;12.20;;
19589;SDS011;12231;42.782;23.388;2022-12-18T09:13:56;27.63;;;12.23;;
19589;SDS011;12231;42.782;23.388;2022-12-18T09:16:23;22.90;;;13.00;;
19589;SDS011;12231;42.782;23.388;2022-12-18T09:18:49;23.13;;;11.87;;
19589;SDS011;12231;42.782;23.388;2022-12-18T09:21:16;21.83;;;11.83;;
19589;SDS011;12231;42.782;23.388;2022-12-18T09:23:43;22.67;;;11.37;;
19589;SDS011;12231;42.782;23.388;2022-12-18T09:26:08;22.70;;;11.43;;
19589;SDS011;12231;42.782;23.388;2022-12-18T09:28:34;21.30;;;12.17;;
19589;SDS011;12231;42.782;23.388;2022-12-18T09:31:03;22.30;;;12.93;;
19589;SDS011;12231;42.782;23.388;2022-12-18T09:33:31;23.30;;;12.03;;
19589;SDS011;12231;42.782;23.388;2022-12-18T09:35:56;29.20;;;13.60;;
19589;SDS011;12231;42.782;23.388;2022-12-18T09:38:22;20.90;;;11.80;;
19589;SDS011;12231;42.782;23.388;2022-12-18T09:40:49;26.67;;;13.10;;
19589;SDS011;12231;42.782;23.388;2022-12-18T09:43:19;33.20;;;17.80;;
19589;SDS011;12231;42.782;23.388;2022-12-18T09:45:51;29.27;;;17.93;;
19589;SDS011;12231;42.782;23.388;2022-12-18T09:48:23;27.90;;;13.20;;
19589;SDS011;12231;42.782;23.388;2022-12-18T09:50:53;32.33;;;19.27;;
19589;SDS011;12231;42.782;23.388;2022-12-18T09:53:24;21.93;;;11.77;;
19589;SDS011;12231;42.782;23.388;2022-12-18T09:55:52;25.73;;;13.80;;
19589;SDS011;12231;42.782;23.388;2022-12-18T09:58:45;50.47;;;21.33;;
19589;SDS011;12231;42.782;23.388;2022-12-18T10:01:18;27.07;;;14.03;;
19589;SDS011;12231;42.782;23.388;2022-12-18T10:03:49;24.03;;;13.00;;
19589;SDS011;12231;42.782;23.388;2022-12-18T10:06:28;23.57;;;13.90;;
19589;SDS011;12231;42.782;23.388;2022-12-18T10:11:43;36.23;;;17.00;;
19589;SDS011;12231;42.782;23.388;2022-12-18T10:17:45;22.37;;;11.90;;
19589;SDS011;12231;42.782;23.388;2022-12-18T10:20:32;28.47;;;13.90;;
19589;SDS011;12231;42.782;23.388;2022-12-18T10:26:09;24.47;;;13.63;;
19589;SDS011;12231;42.782;23.388;2022-12-18T10:28:36;35.00;;;20.33;;
19589;SDS011;12231;42.782;23.388;2022-12-18T10:31:10;40.27;;;23.13;;
19589;SDS011;12231;42.782;23.388;2022-12-18T10:33:43;38.20;;;20.70;;
19589;SDS011;12231;42.782;23.388;2022-12-18T10:36:08;28.97;;;13.43;;
19589;SDS011;12231;42.782;23.388;2022-12-18T10:38:35;24.13;;;11.57;;
19589;SDS011;12231;42.782;23.388;2022-12-18T10:41:02;24.27;;;12.33;;
19589;SDS011;12231;42.782;23.388;2022-12-18T10:43:33;22.40;;;12.67;;
19589;SDS011;12231;42.782;23.388;2022-12-18T10:48:33;22.73;;;12.23;;
19589;SDS011;12231;42.782;23.388;2022-12-18T10:51:24;29.07;;;13.83;;
19589;SDS011;12231;42.782;23.388;2022-12-18T10:53:57;22.63;;;12.40;;
19589;SDS011;12231;42.782;23.388;2022-12-18T10:56:26;20.10;;;10.77;;
19589;SDS011;12231;42.782;23.388;2022-12-18T10:58:58;24.30;;;13.40;;
19589;SDS011;12231;42.782;23.388;2022-12-18T11:01:27;25.80;;;14.97;;
19589;SDS011;12231;42.782;23.388;2022-12-18T11:06:19;39.27;;;18.17;;
19589;SDS011;12231;42.782;23.388;2022-12-18T11:09:05;31.50;;;16.37;;
19589;SDS011;12231;42.782;23.388;2022-12-18T11:11:48;37.67;;;23.00;;
19589;SDS011;12231;42.782;23.388;2022-12-18T11:14:18;35.50;;;18.67;;
19589;SDS011;12231;42.782;23.388;2022-12-18T11:16:57;29.60;;;15.73;;
19589;SDS011;12231;42.782;23.388;2022-12-18T11:22:21;32.63;;;17.70;;
19589;SDS011;12231;42.782;23.388;2022-12-18T11:24:59;35.27;;;20.23;;
19589;SDS011;12231;42.782;23.388;2022-12-18T11:27:27;26.23;;;14.53;;
19589;SDS011;12231;42.782;23.388;2022-12-18T11:30:07;28.83;;;16.73;;
19589;SDS011;12231;42.782;23.388;2022-12-18T11:32:38;32.67;;;18.27;;
19589;SDS011;12231;42.782;23.388;2022-12-18T11:35:11;33.57;;;16.07;;
19589;SDS011;12231;42.782;23.388;2022-12-18T11:37:39;31.77;;;15.10;;
19589;SDS011;12231;42.782;23.388;2022-12-18T11:40:14;23.93;;;14.73;;
19589;SDS011;12231;42.782;23.388;2022-12-18T11:45:33;39.30;;;20.53;;
19589;SDS011;12231;42.782;23.388;2022-12-18T11:48:16;49.13;;;23.37;;
19589;SDS011;12231;42.782;23.388;2022-12-18T11:51:02;30.20;;;16.73;;
19589;SDS011;12231;42.782;23.388;2022-12-18T11:53:35;36.40;;;17.77;;
19589;SDS011;12231;42.782;23.388;2022-12-18T12:21:40;45.03;;;26.67;;
19589;SDS011;12231;42.782;23.388;2022-12-18T12:27:00;35.47;;;20.60;;
19589;SDS011;12231;42.782;23.388;2022-12-18T12:40:26;33.40;;;17.63;;
19589;SDS011;12231;42.782;23.388;2022-12-18T12:42:54;36.87;;;18.27;;
19589;SDS011;12231;42.782;23.388;2022-12-18T12:48:30;44.33;;;18.03;;
19589;SDS011;12231;42.782;23.388;2022-12-18T12:50:57;47.63;;;19.50;;
19589;SDS011;12231;42.782;23.388;2022-12-18T12:53:36;51.00;;;20.87;;
19589;SDS011;12231;42.782;23.388;2022-12-18T12:56:04;30.43;;;16.03;;
19589;SDS011;12231;42.782;23.388;2022-12-18T13:08:59;61.97;;;23.67;;
19589;SDS011;12231;42.782;23.388;2022-12-18T13:11:36;51.33;;;21.83;;
19589;SDS011;12231;42.782;23.388;2022-12-18T13:14:27;41.77;;;18.43;;
19589;SDS011;12231;42.782;23.388;2022-12-18T13:20:02;42.27;;;19.73;;
19589;SDS011;12231;42.782;23.388;2022-12-18T13:22:47;41.87;;;20.77;;
19589;SDS011;12231;42.782;23.388;2022-12-18T13:27:57;42.47;;;20.20;;
19589;SDS011;12231;42.782;23.388;2022-12-18T13:46:44;39.80;;;20.10;;
19589;SDS011;12231;42.782;23.388;2022-12-18T13:51:57;28.67;;;15.13;;
19589;SDS011;12231;42.782;23.388;2022-12-18T13:56:58;27.93;;;15.83;;
19589;SDS011;12231;42.782;23.388;2022-12-18T13:59:25;31.77;;;19.40;;
19589;SDS011;12231;42.782;23.388;2022-12-18T14:01:53;41.20;;;23.57;;
19589;SDS011;12231;42.782;23.388;2022-12-18T14:04:24;48.80;;;27.27;;
19589;SDS011;12231;42.782;23.388;2022-12-18T14:07:35;39.17;;;21.77;;
19589;SDS011;12231;42.782;23.388;2022-12-18T14:09:45;45.67;;;21.97;;
19589;SDS011;12231;42.782;23.388;2022-12-18T14:12:29;37.67;;;20.77;;
19589;SDS011;12231;42.782;23.388;2022-12-18T14:18:38;28.37;;;14.03;;
19589;SDS011;12231;42.782;23.388;2022-12-18T14:20:43;31.13;;;17.23;;
19589;SDS011;12231;42.782;23.388;2022-12-18T14:25:54;39.10;;;23.13;;
19589;SDS011;12231;42.782;23.388;2022-12-18T14:28:20;44.47;;;23.03;;
19589;SDS011;12231;42.782;23.388;2022-12-18T14:30:49;39.57;;;19.97;;
19589;SDS011;12231;42.782;23.388;2022-12-18T14:35:58;49.17;;;23.47;;
19589;SDS011;12231;42.782;23.388;2022-12-18T14:38:37;48.17;;;21.27;;
19589;SDS011;12231;42.782;23.388;2022-12-18T14:41:05;139.27;;;53.70;;
19589;SDS011;12231;42.782;23.388;2022-12-18T14:43:35;28.77;;;14.37;;
19589;SDS011;12231;42.782;23.388;2022-12-18T14:46:03;27.03;;;13.33;;
19589;SDS011;12231;42.782;23.388;2022-12-18T14:51:12;22.60;;;11.97;;
19589;SDS011;12231;42.782;23.388;2022-12-18T14:53:40;23.30;;;12.77;;
19589;SDS011;12231;42.782;23.388;2022-12-18T14:56:14;19.73;;;10.47;;
19589;SDS011;12231;42.782;23.388;2022-12-18T14:58:43;22.17;;;11.43;;
19589;SDS011;12231;42.782;23.388;2022-12-18T15:01:17;28.20;;;15.83;;
19589;SDS011;12231;42.782;23.388;2022-12-18T15:03:44;24.00;;;11.57;;
19589;SDS011;12231;42.782;23.388;2022-12-18T15:06:24;24.20;;;14.23;;
19589;SDS011;12231;42.782;23.388;2022-12-18T15:08:56;34.37;;;21.10;;
19589;SDS011;12231;42.782;23.388;2022-12-18T15:11:35;21.57;;;12.10;;
19589;SDS011;12231;42.782;23.388;2022-12-18T15:14:23;26.93;;;15.83;;
19589;SDS011;12231;42.782;23.388;2022-12-18T15:16:50;24.23;;;13.07;;
19589;SDS011;12231;42.782;23.388;2022-12-18T15:19:17;32.80;;;15.20;;
19589;SDS011;12231;42.782;23.388;2022-12-18T15:21:43;29.30;;;15.57;;
19589;SDS011;12231;42.782;23.388;2022-12-18T15:24:16;26.20;;;15.23;;
19589;SDS011;12231;42.782;23.388;2022-12-18T15:26:43;29.60;;;15.73;;
19589;SDS011;12231;42.782;23.388;2022-12-18T15:29:17;41.03;;;18.20;;
19589;SDS011;12231;42.782;23.388;2022-12-18T15:31:45;30.03;;;13.93;;
19589;SDS011;12231;42.782;23.388;2022-12-18T15:34:23;29.23;;;15.70;;
19589;SDS011;12231;42.782;23.388;2022-12-18T15:36:50;30.70;;;14.63;;
19589;SDS011;12231;42.782;23.388;2022-12-18T15:39:16;33.87;;;17.97;;
19589;SDS011;12231;42.782;23.388;2022-12-18T15:41:41;33.17;;;19.50;;
19589;SDS011;12231;42.782;23.388;2022-12-18T15:44:26;27.83;;;14.53;;
19589;SDS011;12231;42.782;23.388;2022-12-18T15:46:52;29.70;;;14.43;;
19589;SDS011;12231;42.782;23.388;2022-12-18T15:49:17;28.90;;;14.63;;
19589;SDS011;12231;42.782;23.388;2022-12-18T15:51:43;31.50;;;13.90;;
19589;SDS011;12231;42.782;23.388;2022-12-18T15:54:10;39.20;;;17.83;;
19589;SDS011;12231;42.782;23.388;2022-12-18T15:56:38;69.53;;;31.40;;
19589;SDS011;12231;42.782;23.388;2022-12-18T15:59:22;55.03;;;27.03;;
19589;SDS011;12231;42.782;23.388;2022-12-18T16:01:49;45.80;;;23.50;;
19589;SDS011;12231;42.782;23.388;2022-12-18T16:04:17;40.73;;;19.07;;
19589;SDS011;12231;42.782;23.388;2022-12-18T16:06:45;44.50;;;20.77;;
19589;SDS011;12231;42.782;23.388;2022-12-18T16:09:11;40.53;;;19.77;;
19589;SDS011;12231;42.782;23.388;2022-12-18T16:11:36;32.80;;;17.73;;
19589;SDS011;12231;42.782;23.388;2022-12-18T16:16:56;32.90;;;16.40;;
19589;SDS011;12231;42.782;23.388;2022-12-18T16:19:24;30.70;;;16.90;;
19589;SDS011;12231;42.782;23.388;2022-12-18T16:21:51;31.17;;;14.83;;
19589;SDS011;12231;42.782;23.388;2022-12-18T16:24:18;31.57;;;15.13;;
19589;SDS011;12231;42.782;23.388;2022-12-18T16:26:49;33.50;;;14.90;;
19589;SDS011;12231;42.782;23.388;2022-12-18T16:29:16;37.30;;;17.63;;
19589;SDS011;12231;42.782;23.388;2022-12-18T16:31:42;32.40;;;16.33;;